createdAt,value
2019-03-05T00:01:58.420Z,6.10
2019-03-05T00:04:27.975Z,6.20
2019-03-05T00:06:57.774Z,6.20
2019-03-05T00:09:27.385Z,6.20
2019-03-05T00:11:56.997Z,6.20
2019-03-05T00:14:27.563Z,6.20
2019-03-05T00:16:57.159Z,6.20
2019-03-05T00:19:26.737Z,6.10
2019-03-05T00:21:56.359Z,6.10
2019-03-05T00:25:07.667Z,6.10
2019-03-05T00:27:49.449Z,6.10
2019-03-05T00:30:42.383Z,6.00
2019-03-05T00:33:19.047Z,6.00
2019-03-05T00:36:11.940Z,5.90
2019-03-05T00:39:18.282Z,6.00
2019-03-05T00:42:03.491Z,6.00
2019-03-05T00:45:11.870Z,5.80
2019-03-05T00:48:03.398Z,5.80
2019-03-05T00:51:02.280Z,5.80
2019-03-05T00:54:05.645Z,5.70
2019-03-05T00:56:49.719Z,5.70
2019-03-05T01:00:05.379Z,5.70
2019-03-05T01:03:10.490Z,5.80
2019-03-05T01:05:52.532Z,5.70
2019-03-05T01:08:22.410Z,5.70
2019-03-05T01:10:52.184Z,5.70
2019-03-05T01:13:21.721Z,5.70
2019-03-05T01:15:51.563Z,5.70
2019-03-05T01:18:21.055Z,5.70
2019-03-05T01:20:50.657Z,5.70
2019-03-05T01:23:20.672Z,5.60
2019-03-05T01:25:50.560Z,5.50
2019-03-05T01:28:20.148Z,5.60
2019-03-05T01:31:17.808Z,5.50
2019-03-05T01:33:51.311Z,5.60
2019-03-05T01:36:23.268Z,5.50
2019-03-05T01:39:05.243Z,5.50
2019-03-05T01:41:34.843Z,5.40
2019-03-05T01:44:04.475Z,5.40
2019-03-05T01:46:34.035Z,5.50
2019-03-05T01:49:03.543Z,5.50
2019-03-05T01:51:33.201Z,5.60
2019-03-05T01:54:02.710Z,5.60
2019-03-05T01:56:32.316Z,5.50
2019-03-05T01:59:01.847Z,5.50
2019-03-05T02:01:31.632Z,5.50
2019-03-05T02:04:01.183Z,5.60
2019-03-05T02:06:30.957Z,5.50
2019-03-05T02:09:00.645Z,5.50
2019-03-05T02:11:30.128Z,5.50
2019-03-05T02:13:59.704Z,5.40
2019-03-05T02:16:29.239Z,5.40
2019-03-05T02:19:54.839Z,5.40
2019-03-05T02:22:55.205Z,5.40
2019-03-05T02:25:41.218Z,5.30
2019-03-05T02:28:37.007Z,5.40
2019-03-05T02:31:47.441Z,5.40
2019-03-05T02:34:32.535Z,5.30
2019-03-05T02:37:44.595Z,5.40
2019-03-05T02:40:54.073Z,5.50
2019-03-05T02:44:09.028Z,5.70
2019-03-05T02:47:37.768Z,5.60
2019-03-05T02:50:34.450Z,5.70
2019-03-05T02:53:39.755Z,5.70
2019-03-05T02:56:54.419Z,5.70
2019-03-05T02:59:24.404Z,5.80
2019-03-05T03:02:15.869Z,5.90
2019-03-05T03:04:48.336Z,5.90
2019-03-05T03:07:18.054Z,5.90
2019-03-05T03:10:12.286Z,6.00
2019-03-05T03:12:42.019Z,6.00
2019-03-05T03:15:16.094Z,6.00
2019-03-05T03:17:46.084Z,6.10
2019-03-05T03:20:17.141Z,6.00
2019-03-05T03:22:46.792Z,6.00
2019-03-05T03:25:23.414Z,6.00
2019-03-05T03:27:53.081Z,6.00
2019-03-05T03:30:27.090Z,6.10
2019-03-05T03:32:57.692Z,6.20
2019-03-05T03:35:27.586Z,6.20
2019-03-05T03:37:57.187Z,6.30
2019-03-05T03:40:26.748Z,6.20
2019-03-05T03:42:56.531Z,6.10
2019-03-05T03:45:28.910Z,6.10
2019-03-05T03:47:58.466Z,6.10
2019-03-05T03:50:28.078Z,6.20
2019-03-05T03:52:57.657Z,6.20
2019-03-05T03:55:27.250Z,6.30
2019-03-05T03:57:56.926Z,6.50
2019-03-05T04:00:26.854Z,6.50
2019-03-05T04:02:56.646Z,6.60
2019-03-05T04:05:26.366Z,6.60
2019-03-05T04:07:55.905Z,6.60
2019-03-05T04:10:25.502Z,6.60
2019-03-05T04:12:55.147Z,6.60
2019-03-05T04:15:24.710Z,6.70
2019-03-05T04:17:54.246Z,6.60
2019-03-05T04:20:30.118Z,6.60
2019-03-05T04:22:59.709Z,6.50
2019-03-05T04:25:29.372Z,6.50
2019-03-05T04:27:59.096Z,6.40
2019-03-05T04:30:28.722Z,6.40
2019-03-05T04:32:58.463Z,6.40
2019-03-05T04:35:28.046Z,6.40
2019-03-05T04:37:57.720Z,6.40
2019-03-05T04:40:27.434Z,6.30
2019-03-05T04:42:57.212Z,6.30
2019-03-05T04:45:48.869Z,6.20
2019-03-05T04:48:19.200Z,6.10
2019-03-05T04:50:58.358Z,6.10
2019-03-05T04:53:27.957Z,6.10
2019-03-05T04:55:57.670Z,6.10
2019-03-05T04:58:27.451Z,6.10
2019-03-05T05:00:57.020Z,6.20
2019-03-05T05:03:26.797Z,6.20
2019-03-05T05:05:56.547Z,6.30
2019-03-05T05:08:29.414Z,6.40
2019-03-05T05:10:58.971Z,6.40
2019-03-05T05:13:29.640Z,6.40
2019-03-05T05:15:59.147Z,6.50
2019-03-05T05:18:29.575Z,6.60
2019-03-05T05:20:59.216Z,6.70
2019-03-05T05:23:29.477Z,6.70
2019-03-05T05:25:59.093Z,6.70
2019-03-05T05:28:29.426Z,6.60
2019-03-05T05:30:59.188Z,6.60
2019-03-05T05:33:29.954Z,6.50
2019-03-05T05:36:00.682Z,6.60
2019-03-05T05:38:30.488Z,6.50
2019-03-05T05:41:00.145Z,6.40
2019-03-05T05:43:31.883Z,6.30
2019-03-05T05:46:01.402Z,6.40
2019-03-05T05:48:31.618Z,6.40
2019-03-05T05:51:01.402Z,6.40
2019-03-05T05:53:31.300Z,6.30
2019-03-05T05:56:00.953Z,6.30
2019-03-05T05:58:31.087Z,6.30
2019-03-05T06:01:02.741Z,6.30
2019-03-05T06:03:32.462Z,6.30
2019-03-05T06:06:02.401Z,6.40
2019-03-05T06:08:32.028Z,6.40
2019-03-05T06:11:01.839Z,6.50
2019-03-05T06:13:32.780Z,6.60
2019-03-05T06:16:02.521Z,6.60
2019-03-05T06:18:32.900Z,6.70
2019-03-05T06:21:02.704Z,6.70
2019-03-05T06:23:32.437Z,6.50
2019-03-05T06:26:02.125Z,6.70
2019-03-05T06:28:33.023Z,6.50
2019-03-05T06:31:02.838Z,6.50
2019-03-05T06:33:33.227Z,6.60
2019-03-05T06:36:03.059Z,6.70
2019-03-05T06:38:32.895Z,6.80
2019-03-05T06:41:02.797Z,6.80
2019-03-05T06:43:33.126Z,6.80
2019-03-05T06:46:03.123Z,6.80
2019-03-05T06:48:33.600Z,6.90
2019-03-05T06:51:03.485Z,6.90
2019-03-05T06:53:33.923Z,7.00
2019-03-05T06:56:03.796Z,7.00
2019-03-05T06:58:33.589Z,7.00
2019-03-05T07:01:03.620Z,7.10
2019-03-05T07:03:33.331Z,7.20
2019-03-05T07:06:39.811Z,7.30
2019-03-05T07:09:14.374Z,7.30
2019-03-05T07:12:03.718Z,7.40
2019-03-05T07:15:16.467Z,7.50
2019-03-05T07:17:50.440Z,7.80
2019-03-05T07:21:04.071Z,8.20
2019-03-05T07:23:59.680Z,8.30
2019-03-05T07:26:29.340Z,8.40
2019-03-05T07:28:59.216Z,8.50
2019-03-05T07:31:28.844Z,8.60
2019-03-05T07:33:58.747Z,8.40
2019-03-05T07:36:28.539Z,8.60
2019-03-05T07:38:58.551Z,8.90
2019-03-05T07:41:28.473Z,9.10
2019-03-05T07:43:59.016Z,9.20
2019-03-05T07:46:28.840Z,9.10
2019-03-05T07:48:59.336Z,9.10
2019-03-05T07:51:29.056Z,9.20
2019-03-05T07:53:58.800Z,9.20
2019-03-05T07:56:28.775Z,9.20
2019-03-05T07:58:58.608Z,9.30
2019-03-05T08:01:29.462Z,9.30
2019-03-05T08:03:59.084Z,9.30
2019-03-05T08:06:29.337Z,9.40
2019-03-05T08:09:42.280Z,9.40
2019-03-05T08:12:44.900Z,9.60
2019-03-05T08:16:01.748Z,9.80
2019-03-05T08:18:21.882Z,9.90
2019-03-05T08:20:51.814Z,9.90
2019-03-05T08:23:23.061Z,9.90
2019-03-05T08:25:53.026Z,9.90
2019-03-05T08:28:25.008Z,10.50
2019-03-05T08:30:55.193Z,11.00
2019-03-05T08:33:25.071Z,11.40
2019-03-05T08:35:55.036Z,11.20
2019-03-05T08:38:24.674Z,11.20
2019-03-05T08:40:54.494Z,11.30
2019-03-05T08:43:25.658Z,11.70
2019-03-05T08:45:55.739Z,11.80
2019-03-05T08:48:27.187Z,12.10
2019-03-05T08:50:57.211Z,13.40
2019-03-05T08:53:27.964Z,14.50
2019-03-05T08:55:57.701Z,15.30
2019-03-05T08:58:28.083Z,16.40
2019-03-05T09:00:58.156Z,17.20
2019-03-05T09:03:28.771Z,17.60
2019-03-05T09:05:58.562Z,17.80
2019-03-05T09:08:30.581Z,17.40
2019-03-05T09:11:00.437Z,16.90
2019-03-05T09:13:32.935Z,16.40
2019-03-05T09:16:01.964Z,15.70
2019-03-05T09:18:32.155Z,15.50
2019-03-05T09:21:01.858Z,15.40
2019-03-05T09:23:31.681Z,15.20
2019-03-05T09:26:01.296Z,15.10
2019-03-05T09:28:35.216Z,15.10
2019-03-05T09:31:05.109Z,14.80
2019-03-05T09:33:35.329Z,14.60
2019-03-05T09:36:04.999Z,14.60
2019-03-05T09:38:34.795Z,14.60
2019-03-05T09:41:04.715Z,14.50
2019-03-05T09:43:34.423Z,14.20
2019-03-05T09:46:04.153Z,14.10
2019-03-05T09:48:33.757Z,13.70
2019-03-05T09:51:04.032Z,13.50
2019-03-05T09:53:33.787Z,14.00
2019-03-05T09:56:05.983Z,14.80
2019-03-05T09:58:36.747Z,16.00
2019-03-05T10:01:07.220Z,17.20
2019-03-05T10:03:39.416Z,18.00
2019-03-05T10:06:09.901Z,18.20
2019-03-05T10:08:39.692Z,18.40
2019-03-05T10:11:09.652Z,18.20
2019-03-05T10:13:39.632Z,17.60
2019-03-05T10:16:09.869Z,17.00
2019-03-05T10:18:39.728Z,16.30
2019-03-05T10:21:11.925Z,15.60
2019-03-05T10:23:41.813Z,15.60
2019-03-05T10:26:12.615Z,15.60
2019-03-05T10:28:44.258Z,15.50
2019-03-05T10:31:14.323Z,15.50
2019-03-05T10:33:44.062Z,15.60
2019-03-05T10:36:14.057Z,15.90
2019-03-05T10:38:44.017Z,15.90
2019-03-05T10:41:14.069Z,15.90
2019-03-05T10:43:43.927Z,15.80
2019-03-05T10:46:14.125Z,15.40
2019-03-05T10:48:43.836Z,15.30
2019-03-05T10:51:13.936Z,15.20
2019-03-05T10:53:49.767Z,16.20
2019-03-05T10:56:19.817Z,17.10
2019-03-05T10:58:49.485Z,18.00
2019-03-05T11:01:20.094Z,18.50
2019-03-05T11:03:50.089Z,19.60
2019-03-05T11:06:20.626Z,20.60
2019-03-05T11:08:51.740Z,21.20
2019-03-05T11:11:21.672Z,21.90
2019-03-05T11:13:51.878Z,22.10
2019-03-05T11:16:30.443Z,22.00
2019-03-05T11:18:53.414Z,21.80
2019-03-05T11:21:23.320Z,22.00
2019-03-05T11:23:53.329Z,21.60
2019-03-05T11:26:23.196Z,21.80
2019-03-05T11:28:54.660Z,22.10
2019-03-05T11:31:25.616Z,22.00
2019-03-05T11:33:55.715Z,21.10
2019-03-05T11:36:26.712Z,20.20
2019-03-05T11:38:57.275Z,18.90
2019-03-05T11:41:29.042Z,17.90
2019-03-05T11:43:59.045Z,16.80
2019-03-05T11:46:29.045Z,16.00
2019-03-05T11:48:58.779Z,15.10
2019-03-05T11:51:28.791Z,14.60
2019-03-05T11:54:03.699Z,14.10
2019-03-05T11:56:34.197Z,13.80
2019-03-05T11:59:05.193Z,13.60
2019-03-05T12:01:38.044Z,13.30
2019-03-05T12:04:08.099Z,13.30
2019-03-05T12:06:38.315Z,13.30
2019-03-05T12:09:08.655Z,13.30
2019-03-05T12:11:38.221Z,13.40
2019-03-05T12:14:08.311Z,13.30
2019-03-05T12:16:38.271Z,13.40
2019-03-05T12:19:08.283Z,13.30
2019-03-05T12:21:37.889Z,13.40
2019-03-05T12:24:07.728Z,13.40
2019-03-05T12:26:37.291Z,13.50
2019-03-05T12:29:07.287Z,13.50
2019-03-05T12:31:37.340Z,13.70
2019-03-05T12:34:07.967Z,13.80
2019-03-05T12:36:38.112Z,13.90
2019-03-05T12:39:09.259Z,13.80
2019-03-05T12:41:38.959Z,14.00
2019-03-05T12:44:09.457Z,13.90
2019-03-05T12:46:39.244Z,13.80
2019-03-05T12:49:08.787Z,13.80
2019-03-05T12:51:39.813Z,13.90
2019-03-05T12:54:10.059Z,13.90
2019-03-05T12:56:40.024Z,13.80
2019-03-05T12:59:10.509Z,13.70
2019-03-05T13:01:40.321Z,13.60
2019-03-05T13:04:10.021Z,13.50
2019-03-05T13:06:39.986Z,13.50
2019-03-05T13:09:17.915Z,13.50
2019-03-05T13:11:49.974Z,13.40
2019-03-05T13:14:20.963Z,13.30
2019-03-05T13:16:50.671Z,12.90
2019-03-05T13:19:20.724Z,12.80
2019-03-05T13:21:50.916Z,12.70
2019-03-05T13:24:21.236Z,12.60
2019-03-05T13:26:51.343Z,12.40
2019-03-05T13:29:21.119Z,12.30
2019-03-05T13:31:51.114Z,12.30
2019-03-05T13:34:20.888Z,12.30
2019-03-05T13:36:51.739Z,12.50
2019-03-05T13:39:23.691Z,12.60
2019-03-05T13:41:54.890Z,12.60
2019-03-05T13:44:35.580Z,12.60
2019-03-05T13:47:07.860Z,12.60
2019-03-05T13:50:24.313Z,12.50
2019-03-05T13:53:23.799Z,12.60
2019-03-05T13:56:12.021Z,12.70
2019-03-05T13:59:29.234Z,12.70
2019-03-05T14:01:58.930Z,12.80
2019-03-05T14:04:43.319Z,12.80
2019-03-05T14:07:49.604Z,12.70
2019-03-05T14:10:20.361Z,12.60
2019-03-05T14:12:50.278Z,12.60
2019-03-05T14:15:38.171Z,12.60
2019-03-05T14:18:08.861Z,12.60
2019-03-05T14:20:38.800Z,12.50
2019-03-05T14:23:10.163Z,12.40
2019-03-05T14:25:40.881Z,12.30
2019-03-05T14:28:10.790Z,12.30
2019-03-05T14:30:41.351Z,12.30
2019-03-05T14:33:12.210Z,12.20
2019-03-05T14:35:43.478Z,12.00
2019-03-05T14:38:15.171Z,12.10
2019-03-05T14:40:44.937Z,12.10
2019-03-05T14:43:14.662Z,12.10
2019-03-05T14:45:45.563Z,12.00
2019-03-05T14:48:16.464Z,11.90
2019-03-05T14:50:46.524Z,12.00
2019-03-05T14:53:16.690Z,12.00
2019-03-05T14:55:46.470Z,11.90
2019-03-05T14:58:17.178Z,12.00
2019-03-05T15:00:47.920Z,11.90
2019-03-05T15:03:18.546Z,11.90
2019-03-05T15:05:48.588Z,11.80
2019-03-05T15:08:18.975Z,11.80
2019-03-05T15:10:48.877Z,11.80
2019-03-05T15:13:20.164Z,11.70
2019-03-05T15:15:50.142Z,11.70
2019-03-05T15:18:19.911Z,11.60
2019-03-05T15:20:49.677Z,11.60
2019-03-05T15:23:20.231Z,11.60
2019-03-05T15:25:50.731Z,11.60
2019-03-05T15:28:20.614Z,11.60
2019-03-05T15:30:50.701Z,11.60
2019-03-05T15:33:20.690Z,11.60
2019-03-05T15:35:50.473Z,11.50
2019-03-05T15:38:20.244Z,11.50
2019-03-05T15:40:50.231Z,11.50
2019-03-05T15:43:20.046Z,11.20
2019-03-05T15:45:49.814Z,11.10
2019-03-05T15:48:19.474Z,11.10
2019-03-05T15:50:49.604Z,11.00
2019-03-05T15:53:20.180Z,10.90
2019-03-05T15:55:50.214Z,10.80
2019-03-05T15:58:20.195Z,10.70
2019-03-05T16:00:51.332Z,10.50
2019-03-05T16:03:21.187Z,10.30
2019-03-05T16:05:53.945Z,10.30
2019-03-05T16:08:24.990Z,10.20
2019-03-05T16:10:58.481Z,10.20
2019-03-05T16:13:29.545Z,10.20
2019-03-05T16:15:59.480Z,10.10
2019-03-05T16:18:29.291Z,10.10
2019-03-05T16:21:02.607Z,10.10
2019-03-05T16:23:30.359Z,10.20
2019-03-05T16:26:00.163Z,10.20
2019-03-05T16:28:32.202Z,10.20
2019-03-05T16:31:36.372Z,10.20
2019-03-05T16:34:39.692Z,10.00
2019-03-05T16:37:28.305Z,9.80
2019-03-05T16:40:16.926Z,9.70
2019-03-05T16:43:24.969Z,9.60
2019-03-05T16:46:11.989Z,9.30
2019-03-05T16:48:59.425Z,9.30
2019-03-05T16:51:47.983Z,9.00
2019-03-05T16:54:24.204Z,9.00
2019-03-05T16:57:06.767Z,8.90
2019-03-05T16:59:53.359Z,8.80
2019-03-05T17:02:33.574Z,8.70
2019-03-05T17:05:27.946Z,8.80
2019-03-05T17:08:34.614Z,8.70
2019-03-05T17:11:28.978Z,8.60
2019-03-05T17:13:58.807Z,8.60
2019-03-05T17:16:28.612Z,8.70
2019-03-05T17:18:58.762Z,8.70
2019-03-05T17:21:28.770Z,8.60
2019-03-05T17:23:58.498Z,8.60
2019-03-05T17:26:29.045Z,8.50
2019-03-05T17:28:58.684Z,8.40
2019-03-05T17:31:29.769Z,8.40
2019-03-05T17:33:59.428Z,8.40
2019-03-05T17:36:29.016Z,8.40
2019-03-05T17:38:59.434Z,8.40
2019-03-05T17:41:29.279Z,8.50
2019-03-05T17:43:58.963Z,8.40
2019-03-05T17:46:28.911Z,8.40
2019-03-05T17:48:58.623Z,8.40
2019-03-05T17:51:28.220Z,8.40
2019-03-05T17:53:57.967Z,8.40
2019-03-05T17:56:27.958Z,8.40
2019-03-05T17:58:58.271Z,8.50
2019-03-05T18:01:28.399Z,8.50
2019-03-05T18:03:58.098Z,8.30
2019-03-05T18:06:28.526Z,8.50
2019-03-05T18:08:59.670Z,8.60
2019-03-05T18:11:29.730Z,8.50
2019-03-05T18:13:59.708Z,8.30
2019-03-05T18:16:29.663Z,8.40
2019-03-05T18:19:00.103Z,8.30
2019-03-05T18:21:30.230Z,8.20
2019-03-05T18:27:03.032Z,8.00
2019-03-05T18:29:33.829Z,8.00
2019-03-05T18:32:03.373Z,7.80
2019-03-05T18:34:33.040Z,7.70
2019-03-05T18:37:02.614Z,7.60
2019-03-05T18:39:32.221Z,7.40
2019-03-05T18:42:01.934Z,7.40
2019-03-05T18:44:31.546Z,7.30
2019-03-05T18:47:02.063Z,7.30
2019-03-05T18:49:31.932Z,7.20
2019-03-05T18:52:01.604Z,7.20
2019-03-05T18:54:31.230Z,7.00
2019-03-05T18:57:00.800Z,7.00
2019-03-05T18:59:30.413Z,6.90
2019-03-05T19:01:59.998Z,6.90
2019-03-05T19:04:31.809Z,6.80
2019-03-05T19:07:01.723Z,6.80
2019-03-05T19:09:31.297Z,6.80
2019-03-05T19:12:01.123Z,6.70
2019-03-05T19:14:30.910Z,6.90
2019-03-05T19:17:00.600Z,6.80
2019-03-05T19:19:30.150Z,6.80
2019-03-05T19:21:59.732Z,6.80
2019-03-05T19:24:29.265Z,6.70
2019-03-05T19:26:58.949Z,6.60
2019-03-05T19:29:28.800Z,6.60
2019-03-05T19:31:58.350Z,6.50
2019-03-05T19:34:27.902Z,6.40
2019-03-05T19:36:57.720Z,6.50
2019-03-05T19:39:27.502Z,6.50
2019-03-05T19:41:57.106Z,6.40
2019-03-05T19:44:26.726Z,6.50
2019-03-05T19:46:56.737Z,6.50
2019-03-05T19:49:26.342Z,6.50
2019-03-05T19:51:55.872Z,6.40
2019-03-05T19:54:25.498Z,6.30
2019-03-05T19:56:54.997Z,6.30
2019-03-05T19:59:24.642Z,6.30
2019-03-05T20:01:54.218Z,6.30
2019-03-05T20:04:24.005Z,6.30
2019-03-05T20:06:53.686Z,6.30
2019-03-05T20:09:24.306Z,6.20
2019-03-05T20:11:53.870Z,6.20
2019-03-05T20:14:23.843Z,6.20
2019-03-05T20:16:53.520Z,6.20
2019-03-05T20:19:23.210Z,6.20
2019-03-05T20:21:52.726Z,6.10
2019-03-05T20:24:22.396Z,6.30
2019-03-05T20:26:51.951Z,6.40
2019-03-05T20:29:21.633Z,6.50
2019-03-05T20:31:51.125Z,6.60
2019-03-05T20:34:20.729Z,6.70
2019-03-05T20:36:50.625Z,6.60
2019-03-05T20:39:20.261Z,6.70
2019-03-05T20:41:49.838Z,6.80
2019-03-05T20:44:19.510Z,6.70
2019-03-05T20:46:49.103Z,6.70
2019-03-05T20:49:18.821Z,6.80
2019-03-05T20:51:51.712Z,6.80
2019-03-05T20:54:21.567Z,6.80
2019-03-05T20:56:52.674Z,6.80
2019-03-05T20:59:22.271Z,6.90
2019-03-05T21:01:53.697Z,7.00
2019-03-05T21:04:24.887Z,7.00
2019-03-05T21:06:57.699Z,7.00
2019-03-05T21:09:27.663Z,7.10
2019-03-05T21:11:57.232Z,7.10
2019-03-05T21:14:28.119Z,7.10
2019-03-05T21:16:57.673Z,7.10
2019-03-05T21:19:27.380Z,7.10
2019-03-05T21:21:56.916Z,7.10
2019-03-05T21:24:26.743Z,7.10
2019-03-05T21:26:56.487Z,7.10
2019-03-05T21:29:26.083Z,7.10
2019-03-05T21:31:55.785Z,7.10
2019-03-05T21:34:25.338Z,7.00
2019-03-05T21:36:55.401Z,6.90
2019-03-05T21:39:24.872Z,7.00
2019-03-05T21:41:54.462Z,7.00
2019-03-05T21:44:24.048Z,6.90
2019-03-05T21:46:53.909Z,7.00
2019-03-05T21:49:23.511Z,7.00
2019-03-05T21:51:53.675Z,7.00
2019-03-05T21:54:24.459Z,7.10
2019-03-05T21:56:56.853Z,6.90
2019-03-05T21:59:26.488Z,7.10
2019-03-05T22:01:56.166Z,7.10
2019-03-05T22:04:25.865Z,7.10
2019-03-05T22:06:55.595Z,7.10
2019-03-05T22:09:25.339Z,7.00
2019-03-05T22:11:54.914Z,7.00
2019-03-05T22:14:24.451Z,7.00
2019-03-05T22:16:54.161Z,6.80
2019-03-05T22:19:23.758Z,7.00
2019-03-05T22:21:53.532Z,6.90
2019-03-05T22:24:23.195Z,6.90
2019-03-05T22:26:52.730Z,6.90
2019-03-05T22:29:22.330Z,7.00
2019-03-05T22:31:51.936Z,7.00
2019-03-05T22:34:21.599Z,7.00
2019-03-05T22:36:51.104Z,6.90
2019-03-05T22:39:20.703Z,7.00
2019-03-05T22:41:50.214Z,7.00
2019-03-05T22:44:19.847Z,7.10
2019-03-05T22:46:49.603Z,7.10
2019-03-05T22:49:19.328Z,7.00
2019-03-05T22:51:48.828Z,7.00
2019-03-05T22:54:18.546Z,7.00
2019-03-05T22:56:48.247Z,7.00
2019-03-05T22:59:17.821Z,7.10
2019-03-05T23:01:47.423Z,7.00
2019-03-05T23:04:20.432Z,7.00
2019-03-05T23:06:50.096Z,6.90
2019-03-05T23:09:24.464Z,6.90
2019-03-05T23:11:54.151Z,6.90
2019-03-05T23:14:24.940Z,6.80
2019-03-05T23:16:54.493Z,6.80
2019-03-05T23:19:24.276Z,6.80
2019-03-05T23:21:53.905Z,6.70
2019-03-05T23:24:23.706Z,6.70
2019-03-05T23:26:53.258Z,6.60
2019-03-05T23:29:31.874Z,6.60
2019-03-05T23:32:01.469Z,6.50
2019-03-05T23:34:31.046Z,6.60
2019-03-05T23:37:00.718Z,6.60
2019-03-05T23:39:30.214Z,6.50
2019-03-05T23:41:59.962Z,6.60
2019-03-05T23:44:29.708Z,6.60
2019-03-05T23:46:59.358Z,6.60
2019-03-05T23:49:28.899Z,6.60
2019-03-05T23:51:58.574Z,6.60
2019-03-05T23:54:28.271Z,6.60
2019-03-05T23:56:57.848Z,6.60
2019-03-05T23:59:27.412Z,6.50
